Terminal Aerodrome Forecast
Issued by NWS Charleston, WV

Current Version | Previous Version | Graphics & Text | Print | Product List | Glossary On
Versions: 1 2 3 4 5 6 7 8 9 10 11 12 13 14 15 16 17 18 19 20 21 22 23 24 25 26 27 28 29 30
000
FTUS41 KRLX 161215 AAA
TAFCRW
TAF AMD
KCRW 161215Z 1612/1712 27009G18KT P6SM -SHRA OVC015
      TEMPO 1612/1614 3SM -SHRA OVC008
     FM161500 27010G18KT P6SM -SHRA BKN025
     FM162000 26011G21KT P6SM -SHRASN OVC040
     FM170200 26011G20KT P6SM OVC015=

USA.gov is the U.S. government's official web portal to all federal, state and local government web resources and services.